sensor_id;sensor_type;location;lat;lon;timestamp;pressure;altitude;pressure_sealevel;temperature;humidity
9839;BME280;4958;48.150;11.506;2023-12-14T00:02:19;94526.59;;;8.09;96.53
9839;BME280;4958;48.150;11.506;2023-12-14T00:04:50;94535.69;;;8.12;96.75
9839;BME280;4958;48.150;11.506;2023-12-14T00:07:27;94539.03;;;8.12;97.29
9839;BME280;4958;48.150;11.506;2023-12-14T00:09:59;94540.44;;;8.15;97.12
9839;BME280;4958;48.150;11.506;2023-12-14T00:12:32;94542.81;;;8.16;96.94
9839;BME280;4958;48.150;11.506;2023-12-14T00:15:07;94541.06;;;8.17;96.65
9839;BME280;4958;48.150;11.506;2023-12-14T00:17:44;94555.63;;;8.16;96.38
9839;BME280;4958;48.150;11.506;2023-12-14T00:20:15;94545.94;;;8.12;96.56
9839;BME280;4958;48.150;11.506;2023-12-14T00:22:41;94554.25;;;8.14;96.98
9839;BME280;4958;48.150;11.506;2023-12-14T00:25:25;94551.72;;;8.20;96.48
9839;BME280;4958;48.150;11.506;2023-12-14T00:27:57;94545.38;;;8.16;96.25
9839;BME280;4958;48.150;11.506;2023-12-14T00:30:33;94559.59;;;8.19;96.59
9839;BME280;4958;48.150;11.506;2023-12-14T00:33:02;94556.44;;;8.17;96.11
9839;BME280;4958;48.150;11.506;2023-12-14T00:35:38;94568.28;;;8.18;97.11
9839;BME280;4958;48.150;11.506;2023-12-14T00:38:06;94570.75;;;8.05;97.44
9839;BME280;4958;48.150;11.506;2023-12-14T00:40:41;94594.97;;;8.02;97.77
9839;BME280;4958;48.150;11.506;2023-12-14T00:43:10;94607.38;;;7.98;98.55
9839;BME280;4958;48.150;11.506;2023-12-14T00:45:39;94612.13;;;8.02;98.71
9839;BME280;4958;48.150;11.506;2023-12-14T00:48:06;94612.75;;;8.04;98.84
9839;BME280;4958;48.150;11.506;2023-12-14T00:50:34;94623.59;;;8.06;99.12
9839;BME280;4958;48.150;11.506;2023-12-14T00:53:00;94633.06;;;8.05;99.13
9839;BME280;4958;48.150;11.506;2023-12-14T00:55:27;94637.56;;;8.03;99.27
9839;BME280;4958;48.150;11.506;2023-12-14T00:57:53;94642.88;;;8.02;100.00
9839;BME280;4958;48.150;11.506;2023-12-14T01:00:20;94653.31;;;8.00;100.00
9839;BME280;4958;48.150;11.506;2023-12-14T01:02:46;94665.09;;;7.94;100.00
9839;BME280;4958;48.150;11.506;2023-12-14T01:05:13;94656.69;;;8.01;100.00
9839;BME280;4958;48.150;11.506;2023-12-14T01:07:41;94658.44;;;8.00;99.86
9839;BME280;4958;48.150;11.506;2023-12-14T01:10:08;94671.19;;;7.93;100.00
9839;BME280;4958;48.150;11.506;2023-12-14T01:12:37;94665.25;;;7.93;99.91
9839;BME280;4958;48.150;11.506;2023-12-14T01:15:17;94681.97;;;7.89;99.94
9839;BME280;4958;48.150;11.506;2023-12-14T01:17:52;94681.56;;;7.85;100.00
9839;BME280;4958;48.150;11.506;2023-12-14T01:20:21;94662.41;;;7.81;98.47
9839;BME280;4958;48.150;11.506;2023-12-14T01:23:00;94655.50;;;7.82;98.26
9839;BME280;4958;48.150;11.506;2023-12-14T01:25:35;94651.97;;;7.83;98.00
9839;BME280;4958;48.150;11.506;2023-12-14T01:28:08;94668.31;;;7.82;98.40
9839;BME280;4958;48.150;11.506;2023-12-14T01:30:36;94658.25;;;7.80;97.85
9839;BME280;4958;48.150;11.506;2023-12-14T01:33:03;94674.25;;;7.82;98.39
9839;BME280;4958;48.150;11.506;2023-12-14T01:35:48;94679.41;;;7.89;98.58
9839;BME280;4958;48.150;11.506;2023-12-14T01:38:22;94685.34;;;7.89;98.39
9839;BME280;4958;48.150;11.506;2023-12-14T01:40:54;94701.09;;;7.86;99.58
9839;BME280;4958;48.150;11.506;2023-12-14T01:43:26;94713.91;;;7.86;100.00
9839;BME280;4958;48.150;11.506;2023-12-14T01:46:01;94711.97;;;7.88;99.75
9839;BME280;4958;48.150;11.506;2023-12-14T01:48:28;94707.06;;;7.93;99.59
9839;BME280;4958;48.150;11.506;2023-12-14T01:50:54;94709.63;;;7.93;99.69
9839;BME280;4958;48.150;11.506;2023-12-14T01:53:22;94708.91;;;8.00;99.24
9839;BME280;4958;48.150;11.506;2023-12-14T01:55:49;94717.50;;;7.92;99.07
9839;BME280;4958;48.150;11.506;2023-12-14T01:58:15;94732.47;;;7.88;99.70
9839;BME280;4958;48.150;11.506;2023-12-14T02:00:46;94735.22;;;7.87;99.85
9839;BME280;4958;48.150;11.506;2023-12-14T02:03:21;94730.09;;;7.87;99.85
9839;BME280;4958;48.150;11.506;2023-12-14T02:05:53;94741.91;;;7.88;100.00
9839;BME280;4958;48.150;11.506;2023-12-14T02:08:19;94750.19;;;7.90;100.00
9839;BME280;4958;48.150;11.506;2023-12-14T02:10:52;94745.28;;;7.88;99.91
9839;BME280;4958;48.150;11.506;2023-12-14T02:13:18;94752.34;;;7.86;100.00
9839;BME280;4958;48.150;11.506;2023-12-14T02:15:45;94744.56;;;7.80;99.71
9839;BME280;4958;48.150;11.506;2023-12-14T02:18:12;94751.56;;;7.86;100.00
9839;BME280;4958;48.150;11.506;2023-12-14T02:20:38;94774.25;;;7.74;100.00
9839;BME280;4958;48.150;11.506;2023-12-14T02:23:12;94780.34;;;7.73;100.00
9839;BME280;4958;48.150;11.506;2023-12-14T02:25:44;94795.56;;;7.75;100.00
9839;BME280;4958;48.150;11.506;2023-12-14T02:28:19;94803.88;;;7.77;100.00
9839;BME280;4958;48.150;11.506;2023-12-14T02:30:48;94804.75;;;7.84;100.00
9839;BME280;4958;48.150;11.506;2023-12-14T02:33:22;94821.28;;;7.81;100.00
9839;BME280;4958;48.150;11.506;2023-12-14T02:35:53;94824.63;;;7.82;100.00
9839;BME280;4958;48.150;11.506;2023-12-14T02:38:21;94828.88;;;7.75;100.00
9839;BME280;4958;48.150;11.506;2023-12-14T02:40:47;94841.50;;;7.76;100.00
9839;BME280;4958;48.150;11.506;2023-12-14T02:43:15;94844.06;;;7.76;100.00
9839;BME280;4958;48.150;11.506;2023-12-14T02:45:42;94840.53;;;7.77;100.00
9839;BME280;4958;48.150;11.506;2023-12-14T02:48:08;94849.19;;;7.76;100.00
9839;BME280;4958;48.150;11.506;2023-12-14T02:50:36;94859.25;;;7.78;100.00
9839;BME280;4958;48.150;11.506;2023-12-14T02:53:08;94859.44;;;7.76;100.00
9839;BME280;4958;48.150;11.506;2023-12-14T02:55:35;94860.50;;;7.82;100.00
9839;BME280;4958;48.150;11.506;2023-12-14T03:01:18;94865.91;;;7.87;100.00
9839;BME280;4958;48.150;11.506;2023-12-14T03:03:44;94866.59;;;7.81;100.00
9839;BME280;4958;48.150;11.506;2023-12-14T03:06:11;94866.16;;;7.77;100.00
9839;BME280;4958;48.150;11.506;2023-12-14T03:08:37;94871.44;;;7.76;100.00
9839;BME280;4958;48.150;11.506;2023-12-14T03:11:20;94872.06;;;7.78;100.00
9839;BME280;4958;48.150;11.506;2023-12-14T03:13:47;94884.44;;;7.74;100.00
9839;BME280;4958;48.150;11.506;2023-12-14T03:16:15;94891.06;;;7.69;100.00
9839;BME280;4958;48.150;11.506;2023-12-14T03:18:42;94883.91;;;7.64;100.00
9839;BME280;4958;48.150;11.506;2023-12-14T03:21:09;94884.88;;;7.63;100.00
9839;BME280;4958;48.150;11.506;2023-12-14T03:23:35;94899.09;;;7.66;100.00
9839;BME280;4958;48.150;11.506;2023-12-14T03:26:02;94890.28;;;7.68;100.00
9839;BME280;4958;48.150;11.506;2023-12-14T03:28:33;94885.34;;;7.67;100.00
9839;BME280;4958;48.150;11.506;2023-12-14T03:31:02;94893.19;;;7.65;100.00
9839;BME280;4958;48.150;11.506;2023-12-14T03:33:29;94899.09;;;7.66;100.00
9839;BME280;4958;48.150;11.506;2023-12-14T03:35:55;94917.56;;;7.61;100.00
9839;BME280;4958;48.150;11.506;2023-12-14T03:38:22;94906.69;;;7.59;100.00
9839;BME280;4958;48.150;11.506;2023-12-14T03:40:48;94910.31;;;7.65;100.00
9839;BME280;4958;48.150;11.506;2023-12-14T03:43:15;94923.84;;;7.73;100.00
9839;BME280;4958;48.150;11.506;2023-12-14T03:45:43;94921.44;;;7.72;100.00
9839;BME280;4958;48.150;11.506;2023-12-14T03:48:26;94913.84;;;7.63;100.00
9839;BME280;4958;48.150;11.506;2023-12-14T03:50:58;94929.41;;;7.62;100.00
9839;BME280;4958;48.150;11.506;2023-12-14T03:53:31;94930.81;;;7.65;100.00
9839;BME280;4958;48.150;11.506;2023-12-14T03:55:58;94937.19;;;7.69;100.00
9839;BME280;4958;48.150;11.506;2023-12-14T03:58:25;94935.69;;;7.74;100.00
9839;BME280;4958;48.150;11.506;2023-12-14T04:00:52;94931.97;;;7.77;100.00
9839;BME280;4958;48.150;11.506;2023-12-14T04:03:19;94930.38;;;7.76;100.00
9839;BME280;4958;48.150;11.506;2023-12-14T04:05:45;94926.50;;;7.65;100.00
9839;BME280;4958;48.150;11.506;2023-12-14T04:08:14;94926.84;;;7.62;100.00
9839;BME280;4958;48.150;11.506;2023-12-14T04:10:42;94939.03;;;7.60;100.00
9839;BME280;4958;48.150;11.506;2023-12-14T04:13:09;94940.63;;;7.61;100.00
9839;BME280;4958;48.150;11.506;2023-12-14T04:15:35;94949.56;;;7.65;100.00
9839;BME280;4958;48.150;11.506;2023-12-14T04:18:03;94951.50;;;7.63;100.00
9839;BME280;4958;48.150;11.506;2023-12-14T04:20:29;94949.22;;;7.68;100.00
9839;BME280;4958;48.150;11.506;2023-12-14T04:22:59;94952.28;;;7.63;100.00
9839;BME280;4958;48.150;11.506;2023-12-14T04:25:25;94952.00;;;7.58;100.00
9839;BME280;4958;48.150;11.506;2023-12-14T04:28:05;94959.34;;;7.61;100.00
9839;BME280;4958;48.150;11.506;2023-12-14T04:30:38;94958.53;;;7.61;100.00
9839;BME280;4958;48.150;11.506;2023-12-14T04:33:15;94969.59;;;7.61;100.00
9839;BME280;4958;48.150;11.506;2023-12-14T04:35:51;94971.81;;;7.65;100.00
9839;BME280;4958;48.150;11.506;2023-12-14T04:38:18;94960.59;;;7.66;100.00
9839;BME280;4958;48.150;11.506;2023-12-14T04:40:55;94963.78;;;7.68;100.00
9839;BME280;4958;48.150;11.506;2023-12-14T04:43:27;94954.69;;;7.65;100.00
9839;BME280;4958;48.150;11.506;2023-12-14T04:45:55;94955.34;;;7.59;100.00
9839;BME280;4958;48.150;11.506;2023-12-14T04:48:23;94969.75;;;7.60;100.00
9839;BME280;4958;48.150;11.506;2023-12-14T04:50:50;94977.28;;;7.61;100.00
9839;BME280;4958;48.150;11.506;2023-12-14T04:53:16;94967.19;;;7.60;100.00
9839;BME280;4958;48.150;11.506;2023-12-14T04:55:42;94979.66;;;7.63;100.00
9839;BME280;4958;48.150;11.506;2023-12-14T04:58:13;94977.72;;;7.65;100.00
9839;BME280;4958;48.150;11.506;2023-12-14T05:00:46;94967.38;;;7.58;99.81
9839;BME280;4958;48.150;11.506;2023-12-14T05:03:18;94971.88;;;7.56;99.62
9839;BME280;4958;48.150;11.506;2023-12-14T05:05:56;94980.00;;;7.60;99.83
9839;BME280;4958;48.150;11.506;2023-12-14T05:08:22;94979.22;;;7.59;99.44
9839;BME280;4958;48.150;11.506;2023-12-14T05:11:01;94978.75;;;7.56;99.87
9839;BME280;4958;48.150;11.506;2023-12-14T05:13:35;94994.13;;;7.56;100.00
9839;BME280;4958;48.150;11.506;2023-12-14T05:16:12;94998.63;;;7.54;100.00
9839;BME280;4958;48.150;11.506;2023-12-14T05:18:42;94998.00;;;7.52;99.77
9839;BME280;4958;48.150;11.506;2023-12-14T05:21:17;95000.75;;;7.50;99.73
9839;BME280;4958;48.150;11.506;2023-12-14T05:23:49;94998.38;;;7.49;99.71
9839;BME280;4958;48.150;11.506;2023-12-14T05:26:22;95008.31;;;7.44;99.88
9839;BME280;4958;48.150;11.506;2023-12-14T05:28:57;95019.81;;;7.48;100.00
9839;BME280;4958;48.150;11.506;2023-12-14T05:31:30;95042.06;;;7.47;100.00
9839;BME280;4958;48.150;11.506;2023-12-14T05:34:02;95047.63;;;7.51;100.00
9839;BME280;4958;48.150;11.506;2023-12-14T05:36:32;95044.09;;;7.52;100.00
9839;BME280;4958;48.150;11.506;2023-12-14T05:39:10;95051.69;;;7.45;100.00
9839;BME280;4958;48.150;11.506;2023-12-14T05:41:46;95059.88;;;7.41;100.00
9839;BME280;4958;48.150;11.506;2023-12-14T05:44:19;95067.84;;;7.46;100.00
9839;BME280;4958;48.150;11.506;2023-12-14T05:46:54;95079.34;;;7.50;100.00
9839;BME280;4958;48.150;11.506;2023-12-14T05:49:24;95089.13;;;7.46;100.00
9839;BME280;4958;48.150;11.506;2023-12-14T05:52:01;95097.88;;;7.52;100.00
9839;BME280;4958;48.150;11.506;2023-12-14T05:54:35;95100.44;;;7.52;100.00
9839;BME280;4958;48.150;11.506;2023-12-14T05:57:07;95102.03;;;7.53;100.00
9839;BME280;4958;48.150;11.506;2023-12-14T05:59:40;95104.66;;;7.45;100.00
9839;BME280;4958;48.150;11.506;2023-12-14T06:02:16;95125.19;;;7.37;100.00
9839;BME280;4958;48.150;11.506;2023-12-14T06:04:51;95149.50;;;7.41;100.00
9839;BME280;4958;48.150;11.506;2023-12-14T06:07:22;95156.53;;;7.47;100.00
9839;BME280;4958;48.150;11.506;2023-12-14T06:09:55;95154.25;;;7.52;100.00
9839;BME280;4958;48.150;11.506;2023-12-14T06:12:29;95150.38;;;7.56;100.00
9839;BME280;4958;48.150;11.506;2023-12-14T06:15:04;95159.56;;;7.50;100.00
9839;BME280;4958;48.150;11.506;2023-12-14T06:17:34;95169.59;;;7.52;100.00
9839;BME280;4958;48.150;11.506;2023-12-14T06:20:10;95172.16;;;7.52;100.00
9839;BME280;4958;48.150;11.506;2023-12-14T06:22:44;95167.69;;;7.54;100.00
9839;BME280;4958;48.150;11.506;2023-12-14T06:25:20;95177.59;;;7.57;100.00
9839;BME280;4958;48.150;11.506;2023-12-14T06:27:52;95171.66;;;7.56;100.00
9839;BME280;4958;48.150;11.506;2023-12-14T06:30:25;95175.38;;;7.54;100.00
9839;BME280;4958;48.150;11.506;2023-12-14T06:32:58;95190.41;;;7.57;100.00
9839;BME280;4958;48.150;11.506;2023-12-14T06:35:33;95201.94;;;7.53;100.00
9839;BME280;4958;48.150;11.506;2023-12-14T06:38:07;95206.09;;;7.54;100.00
9839;BME280;4958;48.150;11.506;2023-12-14T06:40:33;95208.34;;;7.57;100.00
9839;BME280;4958;48.150;11.506;2023-12-14T06:43:12;95205.44;;;7.60;100.00
9839;BME280;4958;48.150;11.506;2023-12-14T06:45:49;95210.25;;;7.63;100.00
9839;BME280;4958;48.150;11.506;2023-12-14T06:48:23;95220.47;;;7.63;100.00
9839;BME280;4958;48.150;11.506;2023-12-14T06:50:50;95224.00;;;7.62;100.00
9839;BME280;4958;48.150;11.506;2023-12-14T06:53:34;95219.53;;;7.64;100.00
9839;BME280;4958;48.150;11.506;2023-12-14T06:56:04;95217.75;;;7.65;100.00
9839;BME280;4958;48.150;11.506;2023-12-14T06:58:41;95226.72;;;7.69;100.00
9839;BME280;4958;48.150;11.506;2023-12-14T07:01:14;95222.41;;;7.61;100.00
9839;BME280;4958;48.150;11.506;2023-12-14T07:03:47;95238.09;;;7.58;100.00
9839;BME280;4958;48.150;11.506;2023-12-14T07:06:20;95244.19;;;7.65;100.00
9839;BME280;4958;48.150;11.506;2023-12-14T07:08:53;95243.84;;;7.68;100.00
9839;BME280;4958;48.150;11.506;2023-12-14T07:11:25;95249.78;;;7.69;100.00
9839;BME280;4958;48.150;11.506;2023-12-14T07:13:57;95256.78;;;7.75;100.00
9839;BME280;4958;48.150;11.506;2023-12-14T07:16:33;95241.44;;;7.67;100.00
9839;BME280;4958;48.150;11.506;2023-12-14T07:19:06;95252.94;;;7.71;100.00
9839;BME280;4958;48.150;11.506;2023-12-14T07:21:41;95261.09;;;7.74;100.00
9839;BME280;4958;48.150;11.506;2023-12-14T07:24:15;95259.66;;;7.72;100.00
9839;BME280;4958;48.150;11.506;2023-12-14T07:26:48;95267.03;;;7.75;100.00
9839;BME280;4958;48.150;11.506;2023-12-14T07:29:21;95267.41;;;7.63;100.00
9839;BME280;4958;48.150;11.506;2023-12-14T07:31:48;95280.16;;;7.72;100.00
9839;BME280;4958;48.150;11.506;2023-12-14T07:34:30;95279.50;;;7.78;100.00
9839;BME280;4958;48.150;11.506;2023-12-14T07:37:02;95271.31;;;7.82;100.00
9839;BME280;4958;48.150;11.506;2023-12-14T07:39:35;95273.25;;;7.80;100.00
9839;BME280;4958;48.150;11.506;2023-12-14T07:42:10;95276.63;;;7.81;100.00
9839;BME280;4958;48.150;11.506;2023-12-14T07:44:45;95285.28;;;7.72;100.00
9839;BME280;4958;48.150;11.506;2023-12-14T07:47:17;95291.84;;;7.74;100.00
9839;BME280;4958;48.150;11.506;2023-12-14T07:49:45;95299.84;;;7.79;100.00
9839;BME280;4958;48.150;11.506;2023-12-14T07:52:29;95300.00;;;7.86;100.00
9839;BME280;4958;48.150;11.506;2023-12-14T07:55:10;95301.22;;;7.90;100.00
9839;BME280;4958;48.150;11.506;2023-12-14T07:58:13;95298.97;;;7.95;100.00
9839;BME280;4958;48.150;11.506;2023-12-14T08:00:52;95296.91;;;7.90;100.00
9839;BME280;4958;48.150;11.506;2023-12-14T08:03:35;95308.44;;;7.94;100.00
9839;BME280;4958;48.150;11.506;2023-12-14T08:06:01;95306.19;;;7.91;100.00
9839;BME280;4958;48.150;11.506;2023-12-14T08:08:28;95308.81;;;7.83;100.00
9839;BME280;4958;48.150;11.506;2023-12-14T08:11:02;95315.69;;;7.83;100.00
9839;BME280;4958;48.150;11.506;2023-12-14T08:13:34;95327.81;;;7.89;100.00
9839;BME280;4958;48.150;11.506;2023-12-14T08:16:07;95330.38;;;7.89;100.00
9839;BME280;4958;48.150;11.506;2023-12-14T08:18:43;95336.31;;;7.89;100.00
9839;BME280;4958;48.150;11.506;2023-12-14T08:21:17;95343.72;;;7.84;100.00
9839;BME280;4958;48.150;11.506;2023-12-14T08:23:50;95350.78;;;7.82;100.00
9839;BME280;4958;48.150;11.506;2023-12-14T08:26:23;95358.59;;;7.89;100.00
9839;BME280;4958;48.150;11.506;2023-12-14T08:28:56;95372.03;;;7.91;100.00
9839;BME280;4958;48.150;11.506;2023-12-14T08:31:32;95373.63;;;8.00;100.00
9839;BME280;4958;48.150;11.506;2023-12-14T08:34:04;95371.06;;;7.92;100.00
9839;BME280;4958;48.150;11.506;2023-12-14T08:36:37;95379.28;;;7.87;100.00
9839;BME280;4958;48.150;11.506;2023-12-14T08:39:09;95399.59;;;7.89;100.00
9839;BME280;4958;48.150;11.506;2023-12-14T08:41:47;95401.34;;;7.96;100.00
9839;BME280;4958;48.150;11.506;2023-12-14T08:44:20;95391.09;;;7.96;100.00
9839;BME280;4958;48.150;11.506;2023-12-14T08:46:52;95400.72;;;7.94;100.00
9839;BME280;4958;48.150;11.506;2023-12-14T08:49:28;95400.28;;;7.83;100.00
9839;BME280;4958;48.150;11.506;2023-12-14T08:52:01;95398.34;;;7.85;100.00
9839;BME280;4958;48.150;11.506;2023-12-14T08:54:37;95400.41;;;7.89;100.00
9839;BME280;4958;48.150;11.506;2023-12-14T08:57:11;95416.56;;;7.90;100.00
9839;BME280;4958;48.150;11.506;2023-12-14T08:59:43;95421.06;;;7.96;100.00
9839;BME280;4958;48.150;11.506;2023-12-14T09:02:15;95414.00;;;7.98;100.00
9839;BME280;4958;48.150;11.506;2023-12-14T09:04:52;95419.94;;;7.98;100.00
9839;BME280;4958;48.150;11.506;2023-12-14T09:07:25;95404.41;;;7.92;100.00
9839;BME280;4958;48.150;11.506;2023-12-14T09:10:00;95411.28;;;7.91;100.00
9839;BME280;4958;48.150;11.506;2023-12-14T09:12:36;95427.78;;;7.97;100.00
9839;BME280;4958;48.150;11.506;2023-12-14T09:15:12;95424.09;;;8.00;100.00
9839;BME280;4958;48.150;11.506;2023-12-14T09:17:46;95433.88;;;8.04;100.00
9839;BME280;4958;48.150;11.506;2023-12-14T09:20:38;95454.50;;;8.11;100.00
9839;BME280;4958;48.150;11.506;2023-12-14T09:23:05;95451.00;;;8.04;100.00
9839;BME280;4958;48.150;11.506;2023-12-14T09:25:35;95464.63;;;8.04;100.00
9839;BME280;4958;48.150;11.506;2023-12-14T09:28:06;95467.34;;;7.94;100.00
9839;BME280;4958;48.150;11.506;2023-12-14T09:30:41;95479.41;;;7.86;100.00
9839;BME280;4958;48.150;11.506;2023-12-14T09:33:14;95492.53;;;7.83;100.00
9839;BME280;4958;48.150;11.506;2023-12-14T09:35:59;95511.41;;;7.90;100.00
9839;BME280;4958;48.150;11.506;2023-12-14T09:38:26;95511.59;;;7.96;100.00
9839;BME280;4958;48.150;11.506;2023-12-14T09:41:01;95501.16;;;7.98;100.00
9839;BME280;4958;48.150;11.506;2023-12-14T09:43:37;95506.28;;;7.98;100.00
9839;BME280;4958;48.150;11.506;2023-12-14T09:46:11;95503.25;;;8.03;100.00
9839;BME280;4958;48.150;11.506;2023-12-14T09:48:47;95509.03;;;8.05;100.00
9839;BME280;4958;48.150;11.506;2023-12-14T09:51:23;95497.66;;;8.07;100.00
9839;BME280;4958;48.150;11.506;2023-12-14T09:54:04;95505.34;;;8.07;100.00
9839;BME280;4958;48.150;11.506;2023-12-14T09:56:45;95505.31;;;8.15;100.00
9839;BME280;4958;48.150;11.506;2023-12-14T09:59:20;95507.38;;;8.20;100.00
9839;BME280;4958;48.150;11.506;2023-12-14T10:02:08;95497.59;;;8.15;100.00
9839;BME280;4958;48.150;11.506;2023-12-14T10:04:35;95490.91;;;8.06;100.00
9839;BME280;4958;48.150;11.506;2023-12-14T10:07:03;95499.06;;;8.10;100.00
9839;BME280;4958;48.150;11.506;2023-12-14T10:09:32;95503.38;;;8.09;100.00
9839;BME280;4958;48.150;11.506;2023-12-14T10:12:30;95510.47;;;7.99;100.00
9839;BME280;4958;48.150;11.506;2023-12-14T10:15:01;95512.69;;;7.94;100.00
9839;BME280;4958;48.150;11.506;2023-12-14T10:17:31;95513.19;;;7.89;100.00
9839;BME280;4958;48.150;11.506;2023-12-14T10:19:58;95516.53;;;7.90;100.00
9839;BME280;4958;48.150;11.506;2023-12-14T10:22:31;95521.22;;;7.86;100.00
9839;BME280;4958;48.150;11.506;2023-12-14T10:24:58;95533.53;;;7.83;100.00
9839;BME280;4958;48.150;11.506;2023-12-14T10:27:27;95545.88;;;7.79;100.00
9839;BME280;4958;48.150;11.506;2023-12-14T10:29:55;95546.69;;;7.88;100.00
9839;BME280;4958;48.150;11.506;2023-12-14T10:32:38;95551.16;;;7.94;100.00
9839;BME280;4958;48.150;11.506;2023-12-14T10:35:06;95554.19;;;7.97;100.00
9839;BME280;4958;48.150;11.506;2023-12-14T10:37:37;95551.97;;;8.03;100.00
9839;BME280;4958;48.150;11.506;2023-12-14T10:40:19;95556.63;;;8.07;100.00
9839;BME280;4958;48.150;11.506;2023-12-14T10:42:47;95550.84;;;7.97;100.00
9839;BME280;4958;48.150;11.506;2023-12-14T10:45:15;95568.78;;;7.97;100.00
9839;BME280;4958;48.150;11.506;2023-12-14T10:48:00;95576.31;;;7.98;100.00
9839;BME280;4958;48.150;11.506;2023-12-14T10:50:30;95578.22;;;7.96;100.00
9839;BME280;4958;48.150;11.506;2023-12-14T10:52:57;95580.00;;;8.04;100.00
9839;BME280;4958;48.150;11.506;2023-12-14T10:55:40;95575.84;;;8.03;100.00
9839;BME280;4958;48.150;11.506;2023-12-14T10:58:08;95681.75;;;8.28;100.00
9839;BME280;4958;48.150;11.506;2023-12-14T11:00:35;95712.75;;;8.51;100.00
9839;BME280;4958;48.150;11.506;2023-12-14T11:03:04;95609.16;;;8.52;100.00
9839;BME280;4958;48.150;11.506;2023-12-14T11:05:45;95566.66;;;8.49;100.00
9839;BME280;4958;48.150;11.506;2023-12-14T11:08:11;95550.66;;;8.39;100.00
9839;BME280;4958;48.150;11.506;2023-12-14T11:10:40;95548.25;;;8.38;100.00
9839;BME280;4958;48.150;11.506;2023-12-14T11:13:22;95543.59;;;8.25;100.00
9839;BME280;4958;48.150;11.506;2023-12-14T11:15:51;95543.09;;;8.29;100.00
9839;BME280;4958;48.150;11.506;2023-12-14T11:18:28;95544.41;;;8.34;100.00
9839;BME280;4958;48.150;11.506;2023-12-14T11:21:00;95547.59;;;8.44;100.00
9839;BME280;4958;48.150;11.506;2023-12-14T11:23:29;95529.19;;;8.40;100.00
9839;BME280;4958;48.150;11.506;2023-12-14T11:25:57;95529.00;;;8.42;100.00
9839;BME280;4958;48.150;11.506;2023-12-14T11:28:24;95531.09;;;8.46;100.00
9839;BME280;4958;48.150;11.506;2023-12-14T11:30:50;95539.72;;;8.53;100.00
9839;BME280;4958;48.150;11.506;2023-12-14T11:33:27;95546.59;;;8.61;100.00
9839;BME280;4958;48.150;11.506;2023-12-14T11:35:55;95521.47;;;8.87;100.00
9839;BME280;4958;48.150;11.506;2023-12-14T11:38:22;95518.69;;;9.28;99.56
9839;BME280;4958;48.150;11.506;2023-12-14T11:40:49;95473.41;;;9.27;96.32
9839;BME280;4958;48.150;11.506;2023-12-14T11:43:16;95424.22;;;9.15;93.19
9839;BME280;4958;48.150;11.506;2023-12-14T11:45:52;95420.09;;;9.06;92.93
9839;BME280;4958;48.150;11.506;2023-12-14T11:48:18;95420.00;;;8.99;93.02
9839;BME280;4958;48.150;11.506;2023-12-14T11:50:47;95419.56;;;8.88;93.31
9839;BME280;4958;48.150;11.506;2023-12-14T11:53:14;95428.41;;;8.85;94.15
9839;BME280;4958;48.150;11.506;2023-12-14T11:55:41;95452.03;;;8.81;94.63
9839;BME280;4958;48.150;11.506;2023-12-14T11:58:19;95448.38;;;8.75;94.93
9839;BME280;4958;48.150;11.506;2023-12-14T12:00:45;95467.28;;;8.82;95.45
9839;BME280;4958;48.150;11.506;2023-12-14T12:03:13;95459.56;;;8.82;95.02
9839;BME280;4958;48.150;11.506;2023-12-14T12:05:55;95479.94;;;8.84;95.76
9839;BME280;4958;48.150;11.506;2023-12-14T12:08:21;95457.16;;;8.81;93.99
9839;BME280;4958;48.150;11.506;2023-12-14T12:10:48;95471.78;;;8.72;94.92
9839;BME280;4958;48.150;11.506;2023-12-14T12:13:16;95486.38;;;8.80;95.15
9839;BME280;4958;48.150;11.506;2023-12-14T12:15:43;95479.94;;;8.84;94.71
9839;BME280;4958;48.150;11.506;2023-12-14T12:18:24;95463.22;;;8.88;93.32
9839;BME280;4958;48.150;11.506;2023-12-14T12:20:51;95433.72;;;8.84;91.89
9839;BME280;4958;48.150;11.506;2023-12-14T12:23:19;95435.50;;;8.83;92.04
9839;BME280;4958;48.150;11.506;2023-12-14T12:25:59;95398.84;;;8.66;89.85
9839;BME280;4958;48.150;11.506;2023-12-14T12:28:32;95433.97;;;8.66;91.46
9839;BME280;4958;48.150;11.506;2023-12-14T12:30:59;95452.88;;;8.73;92.17
9839;BME280;4958;48.150;11.506;2023-12-14T12:33:26;95449.00;;;8.77;91.86
9839;BME280;4958;48.150;11.506;2023-12-14T12:36:04;95428.50;;;8.69;91.49
9839;BME280;4958;48.150;11.506;2023-12-14T12:38:32;95418.22;;;8.69;90.32
9839;BME280;4958;48.150;11.506;2023-12-14T12:40:58;95491.50;;;8.80;94.35
9839;BME280;4958;48.150;11.506;2023-12-14T12:43:26;95454.72;;;8.87;92.08
9839;BME280;4958;48.150;11.506;2023-12-14T12:46:05;95436.91;;;8.86;90.61
9839;BME280;4958;48.150;11.506;2023-12-14T12:48:31;95440.91;;;8.88;90.92
9839;BME280;4958;48.150;11.506;2023-12-14T12:50:58;95439.78;;;8.91;90.94
9839;BME280;4958;48.150;11.506;2023-12-14T12:53:28;95453.88;;;8.95;91.24
9839;BME280;4958;48.150;11.506;2023-12-14T12:56:10;95457.41;;;8.94;91.26
9839;BME280;4958;48.150;11.506;2023-12-14T12:58:36;95462.56;;;8.86;91.42
9839;BME280;4958;48.150;11.506;2023-12-14T13:01:03;95476.75;;;8.82;92.43
9839;BME280;4958;48.150;11.506;2023-12-14T13:03:30;95473.22;;;8.83;91.73
9839;BME280;4958;48.150;11.506;2023-12-14T13:05:56;95488.97;;;8.72;92.42
9839;BME280;4958;48.150;11.506;2023-12-14T13:08:39;95456.44;;;8.64;90.47
9839;BME280;4958;48.150;11.506;2023-12-14T13:11:06;95467.78;;;8.70;90.77
9839;BME280;4958;48.150;11.506;2023-12-14T13:13:36;95467.63;;;8.71;90.05
9839;BME280;4958;48.150;11.506;2023-12-14T13:16:13;95484.31;;;8.67;90.69
9839;BME280;4958;48.150;11.506;2023-12-14T13:18:42;95487.25;;;8.64;90.68
9839;BME280;4958;48.150;11.506;2023-12-14T13:21:13;95477.31;;;8.61;90.41
9839;BME280;4958;48.150;11.506;2023-12-14T13:23:53;95499.44;;;8.62;91.31
9839;BME280;4958;48.150;11.506;2023-12-14T13:26:21;95498.13;;;8.66;91.64
9839;BME280;4958;48.150;11.506;2023-12-14T13:28:49;95490.78;;;8.63;90.75
9839;BME280;4958;48.150;11.506;2023-12-14T13:31:16;95482.91;;;8.64;89.94
9839;BME280;4958;48.150;11.506;2023-12-14T13:34:05;95490.94;;;8.61;90.68
9839;BME280;4958;48.150;11.506;2023-12-14T13:36:32;95484.53;;;8.65;89.93
9839;BME280;4958;48.150;11.506;2023-12-14T13:39:28;95498.91;;;8.75;90.11
9839;BME280;4958;48.150;11.506;2023-12-14T13:41:54;95493.59;;;8.76;89.77
9839;BME280;4958;48.150;11.506;2023-12-14T13:44:30;95506.28;;;8.78;89.74